sensor_id;sensor_type;location;lat;lon;timestamp;pressure;altitude;pressure_sealevel;temperature;humidity
26487;BME280;14425;56.136;40.360;2022-12-24T00:02:05;98611.03;;;2.19;100.00
26487;BME280;14425;56.136;40.360;2022-12-24T00:04:31;98609.69;;;2.26;100.00
26487;BME280;14425;56.136;40.360;2022-12-24T00:06:56;98621.56;;;2.44;100.00
26487;BME280;14425;56.136;40.360;2022-12-24T00:09:21;98623.41;;;2.13;100.00
26487;BME280;14425;56.136;40.360;2022-12-24T00:11:47;98616.19;;;2.21;100.00
26487;BME280;14425;56.136;40.360;2022-12-24T00:14:12;98618.00;;;2.40;100.00
26487;BME280;14425;56.136;40.360;2022-12-24T00:16:37;98614.94;;;2.29;100.00
26487;BME280;14425;56.136;40.360;2022-12-24T00:19:03;98623.03;;;2.22;100.00
26487;BME280;14425;56.136;40.360;2022-12-24T00:21:28;98625.78;;;1.94;100.00
26487;BME280;14425;56.136;40.360;2022-12-24T00:23:53;98623.19;;;2.25;100.00
26487;BME280;14425;56.136;40.360;2022-12-24T00:26:18;98637.59;;;2.25;100.00
26487;BME280;14425;56.136;40.360;2022-12-24T00:28:44;98633.28;;;2.24;100.00
26487;BME280;14425;56.136;40.360;2022-12-24T00:31:14;98636.16;;;2.30;100.00
26487;BME280;14425;56.136;40.360;2022-12-24T00:33:40;98652.19;;;2.45;100.00
26487;BME280;14425;56.136;40.360;2022-12-24T00:36:06;98645.50;;;2.47;100.00
26487;BME280;14425;56.136;40.360;2022-12-24T00:38:31;98656.66;;;2.33;100.00
26487;BME280;14425;56.136;40.360;2022-12-24T00:41:03;98654.19;;;2.01;100.00
26487;BME280;14425;56.136;40.360;2022-12-24T00:43:29;98663.78;;;2.07;100.00
26487;BME280;14425;56.136;40.360;2022-12-24T00:45:55;98655.63;;;2.13;100.00
26487;BME280;14425;56.136;40.360;2022-12-24T00:48:21;98659.66;;;2.58;100.00
26487;BME280;14425;56.136;40.360;2022-12-24T00:50:47;98673.28;;;2.59;100.00
26487;BME280;14425;56.136;40.360;2022-12-24T00:53:12;98677.63;;;2.29;100.00
26487;BME280;14425;56.136;40.360;2022-12-24T00:55:38;98665.72;;;2.44;100.00
26487;BME280;14425;56.136;40.360;2022-12-24T00:58:03;98696.72;;;2.20;100.00
26487;BME280;14425;56.136;40.360;2022-12-24T01:00:28;98667.22;;;2.24;100.00
26487;BME280;14425;56.136;40.360;2022-12-24T01:02:54;98665.72;;;2.44;100.00
26487;BME280;14425;56.136;40.360;2022-12-24T01:05:19;98675.59;;;2.38;100.00
26487;BME280;14425;56.136;40.360;2022-12-24T01:07:46;98674.47;;;2.49;100.00
26487;BME280;14425;56.136;40.360;2022-12-24T01:10:13;98672.00;;;2.34;100.00
26487;BME280;14425;56.136;40.360;2022-12-24T01:12:39;98697.63;;;2.37;100.00
26487;BME280;14425;56.136;40.360;2022-12-24T01:15:04;98679.81;;;2.21;100.00
26487;BME280;14425;56.136;40.360;2022-12-24T01:17:31;98662.34;;;2.12;100.00
26487;BME280;14425;56.136;40.360;2022-12-24T01:19:57;98670.09;;;2.30;100.00
26487;BME280;14425;56.136;40.360;2022-12-24T01:22:22;98665.25;;;2.51;100.00
26487;BME280;14425;56.136;40.360;2022-12-24T01:24:47;98669.22;;;2.46;100.00
26487;BME280;14425;56.136;40.360;2022-12-24T01:27:14;98672.06;;;2.52;100.00
26487;BME280;14425;56.136;40.360;2022-12-24T01:29:39;98668.72;;;2.37;100.00
26487;BME280;14425;56.136;40.360;2022-12-24T01:32:04;98673.56;;;2.32;100.00
26487;BME280;14425;56.136;40.360;2022-12-24T01:34:29;98687.44;;;2.21;100.00
26487;BME280;14425;56.136;40.360;2022-12-24T01:36:55;98667.94;;;2.54;100.00
26487;BME280;14425;56.136;40.360;2022-12-24T01:39:20;98682.56;;;2.42;100.00
26487;BME280;14425;56.136;40.360;2022-12-24T01:41:45;98666.69;;;2.46;100.00
26487;BME280;14425;56.136;40.360;2022-12-24T01:44:30;98676.19;;;2.67;100.00
26487;BME280;14425;56.136;40.360;2022-12-24T01:47:02;98669.81;;;2.75;100.00
26487;BME280;14425;56.136;40.360;2022-12-24T01:49:29;98676.75;;;2.12;100.00
26487;BME280;14425;56.136;40.360;2022-12-24T01:51:56;98677.81;;;2.32;100.00
26487;BME280;14425;56.136;40.360;2022-12-24T01:54:27;98685.69;;;2.69;100.00
26487;BME280;14425;56.136;40.360;2022-12-24T01:56:56;98675.19;;;2.30;100.00
26487;BME280;14425;56.136;40.360;2022-12-24T01:59:22;98676.03;;;2.47;100.00
26487;BME280;14425;56.136;40.360;2022-12-24T02:01:48;98680.84;;;2.41;100.00
26487;BME280;14425;56.136;40.360;2022-12-24T02:04:16;98680.44;;;2.50;100.00
26487;BME280;14425;56.136;40.360;2022-12-24T02:06:46;98686.09;;;2.28;100.00
26487;BME280;14425;56.136;40.360;2022-12-24T02:09:11;98688.28;;;2.21;100.00
26487;BME280;14425;56.136;40.360;2022-12-24T02:11:37;98700.88;;;2.35;100.00
26487;BME280;14425;56.136;40.360;2022-12-24T02:14:05;98695.84;;;2.20;100.00
26487;BME280;14425;56.136;40.360;2022-12-24T02:18:59;98725.09;;;2.28;100.00
26487;BME280;14425;56.136;40.360;2022-12-24T02:21:40;98703.97;;;2.29;100.00
26487;BME280;14425;56.136;40.360;2022-12-24T02:31:57;98718.50;;;2.32;100.00
26487;BME280;14425;56.136;40.360;2022-12-24T02:34:31;98724.38;;;2.14;100.00
26487;BME280;14425;56.136;40.360;2022-12-24T02:37:11;98717.97;;;2.21;100.00
26487;BME280;14425;56.136;40.360;2022-12-24T02:39:41;98725.53;;;2.36;100.00
26487;BME280;14425;56.136;40.360;2022-12-24T02:42:08;98714.06;;;2.28;100.00
26487;BME280;14425;56.136;40.360;2022-12-24T02:44:46;98726.03;;;2.14;100.00
26487;BME280;14425;56.136;40.360;2022-12-24T02:47:14;98733.63;;;1.97;100.00
26487;BME280;14425;56.136;40.360;2022-12-24T02:49:44;98739.09;;;2.20;100.00
26487;BME280;14425;56.136;40.360;2022-12-24T02:52:27;98738.31;;;2.21;100.00
26487;BME280;14425;56.136;40.360;2022-12-24T02:54:52;98724.16;;;2.26;100.00
26487;BME280;14425;56.136;40.360;2022-12-24T02:57:30;98732.94;;;2.00;100.00
26487;BME280;14425;56.136;40.360;2022-12-24T03:00:09;98726.41;;;2.36;100.00
26487;BME280;14425;56.136;40.360;2022-12-24T03:05:07;98727.66;;;2.28;100.00
26487;BME280;14425;56.136;40.360;2022-12-24T03:07:41;98732.59;;;1.94;100.00
26487;BME280;14425;56.136;40.360;2022-12-24T03:12:56;98743.56;;;1.93;100.00
26487;BME280;14425;56.136;40.360;2022-12-24T03:15:24;98739.44;;;1.95;100.00
26487;BME280;14425;56.136;40.360;2022-12-24T03:17:51;98744.03;;;2.33;100.00
26487;BME280;14425;56.136;40.360;2022-12-24T03:20:19;98751.13;;;2.22;100.00
26487;BME280;14425;56.136;40.360;2022-12-24T03:22:46;98747.84;;;1.94;100.00
26487;BME280;14425;56.136;40.360;2022-12-24T03:25:12;98736.88;;;1.95;100.00
26487;BME280;14425;56.136;40.360;2022-12-24T03:27:38;98741.41;;;2.00;100.00
26487;BME280;14425;56.136;40.360;2022-12-24T03:30:07;98750.38;;;1.94;100.00
26487;BME280;14425;56.136;40.360;2022-12-24T03:32:33;98730.75;;;1.91;100.00
26487;BME280;14425;56.136;40.360;2022-12-24T03:34:58;98733.31;;;1.91;100.00
26487;BME280;14425;56.136;40.360;2022-12-24T03:37:24;98734.53;;;1.98;100.00
26487;BME280;14425;56.136;40.360;2022-12-24T03:39:49;98753.91;;;1.81;100.00
26487;BME280;14425;56.136;40.360;2022-12-24T03:42:15;98725.63;;;1.75;100.00
26487;BME280;14425;56.136;40.360;2022-12-24T03:44:40;98746.38;;;1.82;100.00
26487;BME280;14425;56.136;40.360;2022-12-24T03:47:05;98736.25;;;1.99;100.00
26487;BME280;14425;56.136;40.360;2022-12-24T03:49:31;98740.28;;;1.95;100.00
26487;BME280;14425;56.136;40.360;2022-12-24T03:51:56;98735.94;;;2.09;100.00
26487;BME280;14425;56.136;40.360;2022-12-24T03:54:21;98730.81;;;2.24;100.00
26487;BME280;14425;56.136;40.360;2022-12-24T03:56:47;98729.16;;;2.25;100.00
26487;BME280;14425;56.136;40.360;2022-12-24T03:59:12;98732.84;;;2.46;100.00
26487;BME280;14425;56.136;40.360;2022-12-24T04:01:37;98734.69;;;2.17;100.00
26487;BME280;14425;56.136;40.360;2022-12-24T04:04:02;98736.50;;;2.03;100.00
26487;BME280;14425;56.136;40.360;2022-12-24T04:06:28;98734.13;;;2.07;100.00
26487;BME280;14425;56.136;40.360;2022-12-24T04:08:53;98735.50;;;2.16;100.00
26487;BME280;14425;56.136;40.360;2022-12-24T04:11:18;98747.41;;;2.01;100.00
26487;BME280;14425;56.136;40.360;2022-12-24T04:13:44;98731.16;;;1.99;100.00
26487;BME280;14425;56.136;40.360;2022-12-24T04:16:10;98732.25;;;1.88;100.00
26487;BME280;14425;56.136;40.360;2022-12-24T04:18:36;98747.47;;;2.02;100.00
26487;BME280;14425;56.136;40.360;2022-12-24T04:21:02;98738.91;;;2.17;100.00
26487;BME280;14425;56.136;40.360;2022-12-24T04:23:29;98745.03;;;2.20;100.00
26487;BME280;14425;56.136;40.360;2022-12-24T04:25:55;98745.66;;;2.00;100.00
26487;BME280;14425;56.136;40.360;2022-12-24T04:28:20;98753.94;;;2.12;100.00
26487;BME280;14425;56.136;40.360;2022-12-24T04:30:45;98746.13;;;1.93;100.00
26487;BME280;14425;56.136;40.360;2022-12-24T04:33:12;98745.94;;;1.90;100.00
26487;BME280;14425;56.136;40.360;2022-12-24T04:35:38;98750.22;;;1.91;100.00
26487;BME280;14425;56.136;40.360;2022-12-24T04:38:04;98752.06;;;1.93;100.00
26487;BME280;14425;56.136;40.360;2022-12-24T04:40:29;98762.63;;;2.16;100.00
26487;BME280;14425;56.136;40.360;2022-12-24T04:42:55;98744.09;;;2.18;100.00
26487;BME280;14425;56.136;40.360;2022-12-24T04:45:20;98744.91;;;2.02;100.00
26487;BME280;14425;56.136;40.360;2022-12-24T04:47:45;98737.41;;;2.20;100.00
26487;BME280;14425;56.136;40.360;2022-12-24T04:50:11;98744.69;;;1.98;100.00
26487;BME280;14425;56.136;40.360;2022-12-24T04:52:36;98748.00;;;1.97;100.00
26487;BME280;14425;56.136;40.360;2022-12-24T04:55:01;98746.03;;;1.91;100.00
26487;BME280;14425;56.136;40.360;2022-12-24T04:57:30;57093.69;;;-145.77;100.00
26487;BME280;14425;56.136;40.360;2022-12-24T04:59:55;57093.69;;;-145.77;100.00
26487;BME280;14425;56.136;40.360;2022-12-24T05:02:20;98738.34;;;2.06;100.00
26487;BME280;14425;56.136;40.360;2022-12-24T05:04:46;98738.34;;;2.06;100.00
26487;BME280;14425;56.136;40.360;2022-12-24T05:07:12;98742.28;;;2.32;100.00
26487;BME280;14425;56.136;40.360;2022-12-24T05:09:37;98750.72;;;2.00;100.00
26487;BME280;14425;56.136;40.360;2022-12-24T05:12:03;98739.00;;;2.18;100.00
26487;BME280;14425;56.136;40.360;2022-12-24T05:14:28;98750.38;;;2.25;100.00
26487;BME280;14425;56.136;40.360;2022-12-24T05:16:53;98749.53;;;2.25;100.00
26487;BME280;14425;56.136;40.360;2022-12-24T05:19:19;98755.69;;;2.13;100.00
26487;BME280;14425;56.136;40.360;2022-12-24T05:21:44;98748.88;;;2.29;100.00
26487;BME280;14425;56.136;40.360;2022-12-24T05:24:29;98757.25;;;2.26;100.00
26487;BME280;14425;56.136;40.360;2022-12-24T05:27:13;98753.72;;;2.24;100.00
26487;BME280;14425;56.136;40.360;2022-12-24T05:29:38;98758.56;;;2.19;100.00
26487;BME280;14425;56.136;40.360;2022-12-24T05:32:04;98757.97;;;2.09;100.00
26487;BME280;14425;56.136;40.360;2022-12-24T05:34:29;98756.84;;;2.35;100.00
26487;BME280;14425;56.136;40.360;2022-12-24T05:36:55;98767.81;;;2.02;100.00
26487;BME280;14425;56.136;40.360;2022-12-24T05:39:20;98771.28;;;2.19;100.00
26487;BME280;14425;56.136;40.360;2022-12-24T05:41:46;98763.69;;;2.36;100.00
26487;BME280;14425;56.136;40.360;2022-12-24T05:44:11;98768.28;;;2.27;100.00
26487;BME280;14425;56.136;40.360;2022-12-24T05:46:37;98781.47;;;2.51;100.00
26487;BME280;14425;56.136;40.360;2022-12-24T05:49:05;98771.28;;;2.19;100.00
26487;BME280;14425;56.136;40.360;2022-12-24T05:51:31;98765.69;;;2.10;100.00
26487;BME280;14425;56.136;40.360;2022-12-24T05:53:57;98767.81;;;2.02;100.00
26487;BME280;14425;56.136;40.360;2022-12-24T05:56:23;98768.19;;;1.94;100.00
26487;BME280;14425;56.136;40.360;2022-12-24T05:58:55;98765.56;;;2.24;100.00
26487;BME280;14425;56.136;40.360;2022-12-24T06:01:22;98770.41;;;2.19;100.00
26487;BME280;14425;56.136;40.360;2022-12-24T06:03:47;98767.53;;;2.13;100.00
26487;BME280;14425;56.136;40.360;2022-12-24T06:06:15;98775.84;;;2.42;100.00
26487;BME280;14425;56.136;40.360;2022-12-24T06:08:46;98784.41;;;2.27;100.00
26487;BME280;14425;56.136;40.360;2022-12-24T06:11:22;98776.94;;;1.99;100.00
26487;BME280;14425;56.136;40.360;2022-12-24T06:13:48;98763.78;;;2.06;100.00
26487;BME280;14425;56.136;40.360;2022-12-24T06:16:15;98767.94;;;2.20;100.00
26487;BME280;14425;56.136;40.360;2022-12-24T06:18:40;98767.66;;;2.47;100.00
26487;BME280;14425;56.136;40.360;2022-12-24T06:21:07;98764.56;;;2.05;100.00
26487;BME280;14425;56.136;40.360;2022-12-24T06:23:34;98765.22;;;2.01;100.00
26487;BME280;14425;56.136;40.360;2022-12-24T06:26:00;98772.06;;;1.87;100.00
26487;BME280;14425;56.136;40.360;2022-12-24T06:28:26;98764.50;;;1.89;100.00
26487;BME280;14425;56.136;40.360;2022-12-24T06:30:51;98770.25;;;2.16;100.00
26487;BME280;14425;56.136;40.360;2022-12-24T06:33:17;98766.09;;;1.87;100.00
26487;BME280;14425;56.136;40.360;2022-12-24T06:35:46;98765.09;;;2.14;100.00
26487;BME280;14425;56.136;40.360;2022-12-24T06:38:12;98768.34;;;1.97;100.00
26487;BME280;14425;56.136;40.360;2022-12-24T06:40:38;98767.63;;;1.68;100.00
26487;BME280;14425;56.136;40.360;2022-12-24T06:43:03;98763.09;;;1.94;100.00
26487;BME280;14425;56.136;40.360;2022-12-24T06:45:29;98767.50;;;1.96;100.00
26487;BME280;14425;56.136;40.360;2022-12-24T06:47:54;98767.66;;;1.99;100.00
26487;BME280;14425;56.136;40.360;2022-12-24T06:50:20;98773.75;;;2.18;100.00
26487;BME280;14425;56.136;40.360;2022-12-24T06:52:45;98779.44;;;2.14;100.00
26487;BME280;14425;56.136;40.360;2022-12-24T06:55:11;98762.72;;;2.02;100.00
26487;BME280;14425;56.136;40.360;2022-12-24T06:57:36;98766.28;;;1.90;100.00
26487;BME280;14425;56.136;40.360;2022-12-24T07:00:02;98769.81;;;2.08;100.00
26487;BME280;14425;56.136;40.360;2022-12-24T07:02:29;98773.53;;;1.98;100.00
26487;BME280;14425;56.136;40.360;2022-12-24T07:04:54;98768.22;;;1.79;100.00
26487;BME280;14425;56.136;40.360;2022-12-24T07:07:22;98769.97;;;1.80;100.00
26487;BME280;14425;56.136;40.360;2022-12-24T07:09:47;98767.69;;;1.84;100.00
26487;BME280;14425;56.136;40.360;2022-12-24T07:12:13;98775.81;;;1.94;100.00
26487;BME280;14425;56.136;40.360;2022-12-24T07:14:38;98768.66;;;1.87;100.00
26487;BME280;14425;56.136;40.360;2022-12-24T07:17:03;98772.22;;;1.90;100.00
26487;BME280;14425;56.136;40.360;2022-12-24T07:19:29;98779.13;;;2.08;100.00
26487;BME280;14425;56.136;40.360;2022-12-24T07:21:54;98772.78;;;1.84;100.00
26487;BME280;14425;56.136;40.360;2022-12-24T07:24:22;98764.88;;;1.80;100.00
26487;BME280;14425;56.136;40.360;2022-12-24T07:26:48;98760.69;;;1.65;100.00
26487;BME280;14425;56.136;40.360;2022-12-24T07:29:13;98750.69;;;1.83;100.00
26487;BME280;14425;56.136;40.360;2022-12-24T07:31:38;98748.03;;;1.82;100.00
26487;BME280;14425;56.136;40.360;2022-12-24T07:34:04;98757.88;;;1.76;100.00
26487;BME280;14425;56.136;40.360;2022-12-24T07:36:29;98751.97;;;1.92;100.00
26487;BME280;14425;56.136;40.360;2022-12-24T07:38:55;98754.06;;;2.30;100.00
26487;BME280;14425;56.136;40.360;2022-12-24T07:41:20;98756.88;;;1.89;100.00
26487;BME280;14425;56.136;40.360;2022-12-24T07:43:46;98752.63;;;2.04;100.00
26487;BME280;14425;56.136;40.360;2022-12-24T07:46:14;98752.41;;;1.99;100.00
26487;BME280;14425;56.136;40.360;2022-12-24T07:48:40;98756.88;;;1.89;100.00
26487;BME280;14425;56.136;40.360;2022-12-24T07:51:08;98756.13;;;1.75;100.00
26487;BME280;14425;56.136;40.360;2022-12-24T07:53:34;98750.72;;;2.00;100.00
26487;BME280;14425;56.136;40.360;2022-12-24T07:55:59;98751.22;;;1.78;100.00
26487;BME280;14425;56.136;40.360;2022-12-24T07:58:25;98741.81;;;1.92;100.00
26487;BME280;14425;56.136;40.360;2022-12-24T08:00:57;98743.88;;;1.99;100.00
26487;BME280;14425;56.136;40.360;2022-12-24T08:03:22;98747.78;;;1.77;100.00
26487;BME280;14425;56.136;40.360;2022-12-24T08:05:47;98744.28;;;1.75;100.00
26487;BME280;14425;56.136;40.360;2022-12-24T08:08:13;98750.34;;;1.62;100.00
26487;BME280;14425;56.136;40.360;2022-12-24T08:10:40;98747.16;;;1.96;100.00
26487;BME280;14425;56.136;40.360;2022-12-24T08:13:05;98740.09;;;2.07;100.00
26487;BME280;14425;56.136;40.360;2022-12-24T08:15:34;98738.44;;;1.76;100.00
26487;BME280;14425;56.136;40.360;2022-12-24T08:18:00;98725.06;;;1.80;100.00
26487;BME280;14425;56.136;40.360;2022-12-24T08:20:25;98718.41;;;1.82;100.00
26487;BME280;14425;56.136;40.360;2022-12-24T08:22:51;98716.28;;;1.90;100.00
26487;BME280;14425;56.136;40.360;2022-12-24T08:25:16;98722.44;;;1.79;100.00
26487;BME280;14425;56.136;40.360;2022-12-24T08:27:41;98728.28;;;1.61;100.00
26487;BME280;14425;56.136;40.360;2022-12-24T08:30:10;98707.56;;;1.70;100.00
26487;BME280;14425;56.136;40.360;2022-12-24T08:32:36;98715.84;;;1.82;100.00
26487;BME280;14425;56.136;40.360;2022-12-24T08:35:02;98713.75;;;1.90;100.00
26487;BME280;14425;56.136;40.360;2022-12-24T08:37:29;98705.84;;;1.85;100.00
26487;BME280;14425;56.136;40.360;2022-12-24T08:39:54;98713.97;;;1.78;100.00
26487;BME280;14425;56.136;40.360;2022-12-24T08:42:21;98714.44;;;1.88;100.00
26487;BME280;14425;56.136;40.360;2022-12-24T08:44:46;98706.69;;;1.84;100.00
26487;BME280;14425;56.136;40.360;2022-12-24T08:47:14;98711.06;;;1.72;100.00
26487;BME280;14425;56.136;40.360;2022-12-24T08:49:40;98701.38;;;1.96;100.00
26487;BME280;14425;56.136;40.360;2022-12-24T08:55:09;98697.63;;;1.90;100.00
26487;BME280;14425;56.136;40.360;2022-12-24T08:57:38;98691.50;;;1.86;100.00
26487;BME280;14425;56.136;40.360;2022-12-24T09:00:04;98687.31;;;1.72;100.00
26487;BME280;14425;56.136;40.360;2022-12-24T09:02:30;98694.31;;;1.76;100.00
26487;BME280;14425;56.136;40.360;2022-12-24T09:04:56;98689.69;;;1.69;100.00
26487;BME280;14425;56.136;40.360;2022-12-24T09:07:28;98675.44;;;1.87;100.00
26487;BME280;14425;56.136;40.360;2022-12-24T09:09:57;98675.31;;;1.69;100.00
26487;BME280;14425;56.136;40.360;2022-12-24T09:12:22;98664.41;;;1.87;100.00
26487;BME280;14425;56.136;40.360;2022-12-24T09:14:49;98666.38;;;1.92;100.00
26487;BME280;14425;56.136;40.360;2022-12-24T09:17:16;98676.56;;;1.61;100.00
26487;BME280;14425;56.136;40.360;2022-12-24T09:19:42;98668.22;;;1.95;100.00
26487;BME280;14425;56.136;40.360;2022-12-24T09:22:08;98660.34;;;1.90;100.00
26487;BME280;14425;56.136;40.360;2022-12-24T09:24:34;98671.84;;;1.83;100.00
26487;BME280;14425;56.136;40.360;2022-12-24T09:27:00;98677.13;;;1.87;100.00
26487;BME280;14425;56.136;40.360;2022-12-24T09:29:26;98674.97;;;1.78;100.00
26487;BME280;14425;56.136;40.360;2022-12-24T09:31:53;98680.28;;;1.82;100.00
26487;BME280;14425;56.136;40.360;2022-12-24T09:34:21;98668.84;;;1.91;100.00
26487;BME280;14425;56.136;40.360;2022-12-24T09:36:46;98669.97;;;1.79;100.00
26487;BME280;14425;56.136;40.360;2022-12-24T09:39:14;98658.44;;;1.86;100.00
26487;BME280;14425;56.136;40.360;2022-12-24T09:46:52;98658.28;;;1.83;100.00
26487;BME280;14425;56.136;40.360;2022-12-24T09:49:24;98658.28;;;1.83;100.00
26487;BME280;14425;56.136;40.360;2022-12-24T09:51:53;98658.28;;;1.83;100.00
26487;BME280;14425;56.136;40.360;2022-12-24T09:56:46;57093.69;;;-145.77;100.00
26487;BME280;14425;56.136;40.360;2022-12-24T09:59:22;57093.69;;;-145.77;100.00
26487;BME280;14425;56.136;40.360;2022-12-24T10:01:52;57093.69;;;-145.77;100.00
26487;BME280;14425;56.136;40.360;2022-12-24T10:04:26;57093.69;;;-145.77;100.00
26487;BME280;14425;56.136;40.360;2022-12-24T10:06:57;57093.69;;;-145.77;100.00
26487;BME280;14425;56.136;40.360;2022-12-24T10:12:15;57093.69;;;-145.77;100.00
26487;BME280;14425;56.136;40.360;2022-12-24T10:27:27;57093.69;;;-145.77;100.00
26487;BME280;14425;56.136;40.360;2022-12-24T10:29:55;57093.69;;;-145.77;100.00
26487;BME280;14425;56.136;40.360;2022-12-24T10:32:27;57093.69;;;-145.77;100.00
26487;BME280;14425;56.136;40.360;2022-12-24T10:34:58;57093.69;;;-145.77;100.00
26487;BME280;14425;56.136;40.360;2022-12-24T10:37:26;57093.69;;;-145.77;100.00
26487;BME280;14425;56.136;40.360;2022-12-24T10:39:59;57093.69;;;-145.77;100.00
26487;BME280;14425;56.136;40.360;2022-12-24T10:42:35;57093.69;;;-145.77;100.00
26487;BME280;14425;56.136;40.360;2022-12-24T10:45:16;57093.69;;;-145.77;100.00
26487;BME280;14425;56.136;40.360;2022-12-24T10:47:43;57093.69;;;-145.77;100.00
26487;BME280;14425;56.136;40.360;2022-12-24T10:52:36;57093.69;;;-145.77;100.00
26487;BME280;14425;56.136;40.360;2022-12-24T10:55:06;57093.69;;;-145.77;100.00
26487;BME280;14425;56.136;40.360;2022-12-24T10:57:33;57093.69;;;-145.77;100.00
26487;BME280;14425;56.136;40.360;2022-12-24T10:59:59;57093.69;;;-145.77;100.00
26487;BME280;14425;56.136;40.360;2022-12-24T11:02:27;57093.69;;;-145.77;100.00
26487;BME280;14425;56.136;40.360;2022-12-24T11:04:53;57093.69;;;-145.77;100.00
26487;BME280;14425;56.136;40.360;2022-12-24T11:07:29;57093.69;;;-145.77;100.00
26487;BME280;14425;56.136;40.360;2022-12-24T11:09:58;57093.69;;;-145.77;100.00
26487;BME280;14425;56.136;40.360;2022-12-24T11:12:25;57093.69;;;-145.77;100.00
26487;BME280;14425;56.136;40.360;2022-12-24T11:15:05;57093.69;;;-145.77;100.00
26487;BME280;14425;56.136;40.360;2022-12-24T11:17:34;57093.69;;;-145.77;100.00
26487;BME280;14425;56.136;40.360;2022-12-24T11:20:01;57093.69;;;-145.77;100.00
26487;BME280;14425;56.136;40.360;2022-12-24T11:22:31;57093.69;;;-145.77;100.00
26487;BME280;14425;56.136;40.360;2022-12-24T11:25:01;57093.69;;;-145.77;100.00
26487;BME280;14425;56.136;40.360;2022-12-24T11:27:31;57093.69;;;-145.77;100.00
26487;BME280;14425;56.136;40.360;2022-12-24T11:32:48;57093.69;;;-145.77;100.00
26487;BME280;14425;56.136;40.360;2022-12-24T11:35:21;57093.69;;;-145.77;100.00
26487;BME280;14425;56.136;40.360;2022-12-24T11:40:34;57093.69;;;-145.77;100.00
26487;BME280;14425;56.136;40.360;2022-12-24T11:43:03;57093.69;;;-145.77;100.00
26487;BME280;14425;56.136;40.360;2022-12-24T11:45:30;57093.69;;;-145.77;100.00
26487;BME280;14425;56.136;40.360;2022-12-24T11:47:57;57093.69;;;-145.77;100.00
26487;BME280;14425;56.136;40.360;2022-12-24T11:52:51;57093.69;;;-145.77;100.00
26487;BME280;14425;56.136;40.360;2022-12-24T12:00:23;57093.69;;;-145.77;100.00
26487;BME280;14425;56.136;40.360;2022-12-24T12:02:50;57093.69;;;-145.77;100.00
26487;BME280;14425;56.136;40.360;2022-12-24T12:05:28;57093.69;;;-145.77;100.00
26487;BME280;14425;56.136;40.360;2022-12-24T12:08:04;57093.69;;;-145.77;100.00
26487;BME280;14425;56.136;40.360;2022-12-24T12:10:35;57093.69;;;-145.77;100.00
26487;BME280;14425;56.136;40.360;2022-12-24T12:13:02;57093.69;;;-145.77;100.00
26487;BME280;14425;56.136;40.360;2022-12-24T12:15:31;57093.69;;;-145.77;100.00
26487;BME280;14425;56.136;40.360;2022-12-24T12:18:06;57093.69;;;-145.77;100.00
26487;BME280;14425;56.136;40.360;2022-12-24T12:27:59;57093.69;;;-145.77;100.00
26487;BME280;14425;56.136;40.360;2022-12-24T12:30:27;57093.69;;;-145.77;100.00
26487;BME280;14425;56.136;40.360;2022-12-24T12:35:35;57093.69;;;-145.77;100.00
26487;BME280;14425;56.136;40.360;2022-12-24T12:38:04;57093.69;;;-145.77;100.00
26487;BME280;14425;56.136;40.360;2022-12-24T12:43:23;57093.69;;;-145.77;100.00
26487;BME280;14425;56.136;40.360;2022-12-24T12:48:45;57093.69;;;-145.77;100.00
26487;BME280;14425;56.136;40.360;2022-12-24T12:51:24;57093.69;;;-145.77;100.00
26487;BME280;14425;56.136;40.360;2022-12-24T12:56:40;57093.69;;;-145.77;100.00
26487;BME280;14425;56.136;40.360;2022-12-24T12:59:29;57093.69;;;-145.77;100.00
26487;BME280;14425;56.136;40.360;2022-12-24T13:12:30;57093.69;;;-145.77;100.00
26487;BME280;14425;56.136;40.360;2022-12-24T13:22:29;57093.69;;;-145.77;100.00
26487;BME280;14425;56.136;40.360;2022-12-24T13:25:00;57093.69;;;-145.77;100.00
26487;BME280;14425;56.136;40.360;2022-12-24T13:27:30;57093.69;;;-145.77;100.00
26487;BME280;14425;56.136;40.360;2022-12-24T13:29:57;57093.69;;;-145.77;100.00
26487;BME280;14425;56.136;40.360;2022-12-24T13:34:49;57093.69;;;-145.77;100.00
26487;BME280;14425;56.136;40.360;2022-12-24T13:37:30;57093.69;;;-145.77;100.00
26487;BME280;14425;56.136;40.360;2022-12-24T13:40:01;57093.69;;;-145.77;100.00
26487;BME280;14425;56.136;40.360;2022-12-24T13:48:39;57093.69;;;-145.77;100.00
26487;BME280;14425;56.136;40.360;2022-12-24T13:50:53;57093.69;;;-145.77;100.00
26487;BME280;14425;56.136;40.360;2022-12-24T13:53:25;57093.69;;;-145.77;100.00
26487;BME280;14425;56.136;40.360;2022-12-24T13:55:57;57093.69;;;-145.77;100.00
26487;BME280;14425;56.136;40.360;2022-12-24T13:58:25;57093.69;;;-145.77;100.00
26487;BME280;14425;56.136;40.360;2022-12-24T14:03:26;57093.69;;;-145.77;100.00
26487;BME280;14425;56.136;40.360;2022-12-24T14:05:58;57093.69;;;-145.77;100.00
26487;BME280;14425;56.136;40.360;2022-12-24T14:11:19;57093.69;;;-145.77;100.00
26487;BME280;14425;56.136;40.360;2022-12-24T14:16:13;57093.69;;;-145.77;100.00
26487;BME280;14425;56.136;40.360;2022-12-24T14:18:42;57093.69;;;-145.77;100.00
26487;BME280;14425;56.136;40.360;2022-12-24T14:21:15;57093.69;;;-145.77;100.00
26487;BME280;14425;56.136;40.360;2022-12-24T14:26:15;57093.69;;;-145.77;100.00
26487;BME280;14425;56.136;40.360;2022-12-24T14:28:48;57093.69;;;-145.77;100.00
26487;BME280;14425;56.136;40.360;2022-12-24T14:31:17;57093.69;;;-145.77;100.00
26487;BME280;14425;56.136;40.360;2022-12-24T14:33:43;57093.69;;;-145.77;100.00
26487;BME280;14425;56.136;40.360;2022-12-24T14:36:09;57093.69;;;-145.77;100.00
26487;BME280;14425;56.136;40.360;2022-12-24T14:38:36;57093.69;;;-145.77;100.00